sensor_id;sensor_type;location;lat;lon;timestamp;temperature;humidity
52203;DHT22;38173;52.850;6.970;2022-10-29T00:00:16;12.30;99.90
52203;DHT22;38173;52.850;6.970;2022-10-29T00:02:42;12.30;99.90
52203;DHT22;38173;52.850;6.970;2022-10-29T00:05:07;12.30;99.90
52203;DHT22;38173;52.850;6.970;2022-10-29T00:07:33;12.30;99.90
52203;DHT22;38173;52.850;6.970;2022-10-29T00:09:59;12.30;99.90
52203;DHT22;38173;52.850;6.970;2022-10-29T00:12:24;12.40;99.90
52203;DHT22;38173;52.850;6.970;2022-10-29T00:14:50;12.40;99.90
52203;DHT22;38173;52.850;6.970;2022-10-29T00:17:16;12.40;99.90
52203;DHT22;38173;52.850;6.970;2022-10-29T00:19:41;12.40;99.90
52203;DHT22;38173;52.850;6.970;2022-10-29T00:22:08;12.50;99.90
52203;DHT22;38173;52.850;6.970;2022-10-29T00:24:33;12.50;99.90
52203;DHT22;38173;52.850;6.970;2022-10-29T00:26:59;12.50;99.90
52203;DHT22;38173;52.850;6.970;2022-10-29T00:29:25;12.50;99.90
52203;DHT22;38173;52.850;6.970;2022-10-29T00:31:50;12.50;99.90
52203;DHT22;38173;52.850;6.970;2022-10-29T00:34:16;12.50;99.90
52203;DHT22;38173;52.850;6.970;2022-10-29T00:36:42;12.50;99.90
52203;DHT22;38173;52.850;6.970;2022-10-29T00:39:09;12.50;99.90
52203;DHT22;38173;52.850;6.970;2022-10-29T00:41:37;12.50;99.90
52203;DHT22;38173;52.850;6.970;2022-10-29T00:46:48;12.40;99.90
52203;DHT22;38173;52.850;6.970;2022-10-29T00:49:15;12.30;99.90
52203;DHT22;38173;52.850;6.970;2022-10-29T00:51:41;12.20;99.90
52203;DHT22;38173;52.850;6.970;2022-10-29T00:54:08;12.10;99.90
52203;DHT22;38173;52.850;6.970;2022-10-29T00:56:35;12.10;99.90
52203;DHT22;38173;52.850;6.970;2022-10-29T00:59:01;12.10;99.90
52203;DHT22;38173;52.850;6.970;2022-10-29T01:01:27;12.10;99.90
52203;DHT22;38173;52.850;6.970;2022-10-29T01:03:53;12.00;99.90
52203;DHT22;38173;52.850;6.970;2022-10-29T01:06:20;12.00;99.90
52203;DHT22;38173;52.850;6.970;2022-10-29T01:08:46;12.00;99.90
52203;DHT22;38173;52.850;6.970;2022-10-29T01:19:52;11.70;99.90
52203;DHT22;38173;52.850;6.970;2022-10-29T01:32:10;11.50;99.90
52203;DHT22;38173;52.850;6.970;2022-10-29T01:37:46;11.50;99.90
52203;DHT22;38173;52.850;6.970;2022-10-29T01:40:15;11.40;99.90
52203;DHT22;38173;52.850;6.970;2022-10-29T01:42:49;11.40;99.90
52203;DHT22;38173;52.850;6.970;2022-10-29T01:45:26;11.40;99.90
52203;DHT22;38173;52.850;6.970;2022-10-29T01:48:01;11.40;99.90
52203;DHT22;38173;52.850;6.970;2022-10-29T01:50:28;11.30;99.90
52203;DHT22;38173;52.850;6.970;2022-10-29T01:52:54;11.30;99.90
52203;DHT22;38173;52.850;6.970;2022-10-29T01:55:22;11.30;99.90
52203;DHT22;38173;52.850;6.970;2022-10-29T01:57:48;11.20;99.90
52203;DHT22;38173;52.850;6.970;2022-10-29T02:00:14;11.20;99.90
52203;DHT22;38173;52.850;6.970;2022-10-29T02:02:51;11.20;99.90
52203;DHT22;38173;52.850;6.970;2022-10-29T02:07:55;11.10;99.90
52203;DHT22;38173;52.850;6.970;2022-10-29T02:12:51;11.10;99.90
52203;DHT22;38173;52.850;6.970;2022-10-29T02:17:59;11.00;99.90
52203;DHT22;38173;52.850;6.970;2022-10-29T02:20:25;11.00;99.90
52203;DHT22;38173;52.850;6.970;2022-10-29T02:22:51;10.90;99.90
52203;DHT22;38173;52.850;6.970;2022-10-29T02:25:17;10.90;99.90
52203;DHT22;38173;52.850;6.970;2022-10-29T02:27:42;10.90;99.90
52203;DHT22;38173;52.850;6.970;2022-10-29T02:30:08;10.80;99.90
52203;DHT22;38173;52.850;6.970;2022-10-29T02:32:34;10.70;99.90
52203;DHT22;38173;52.850;6.970;2022-10-29T02:35:00;10.60;99.90
52203;DHT22;38173;52.850;6.970;2022-10-29T02:37:25;10.50;99.90
52203;DHT22;38173;52.850;6.970;2022-10-29T02:39:54;10.40;99.90
52203;DHT22;38173;52.850;6.970;2022-10-29T02:42:20;10.40;99.90
52203;DHT22;38173;52.850;6.970;2022-10-29T02:44:45;10.30;99.90
52203;DHT22;38173;52.850;6.970;2022-10-29T02:47:11;10.30;99.90
52203;DHT22;38173;52.850;6.970;2022-10-29T02:49:37;10.30;99.90
52203;DHT22;38173;52.850;6.970;2022-10-29T02:52:02;10.30;99.90
52203;DHT22;38173;52.850;6.970;2022-10-29T02:54:28;10.30;99.90
52203;DHT22;38173;52.850;6.970;2022-10-29T02:56:54;10.20;99.90
52203;DHT22;38173;52.850;6.970;2022-10-29T02:59:19;10.30;99.90
52203;DHT22;38173;52.850;6.970;2022-10-29T03:01:45;10.30;99.90
52203;DHT22;38173;52.850;6.970;2022-10-29T03:04:11;10.30;99.90
52203;DHT22;38173;52.850;6.970;2022-10-29T03:06:36;10.30;99.90
52203;DHT22;38173;52.850;6.970;2022-10-29T03:09:02;10.20;99.90
52203;DHT22;38173;52.850;6.970;2022-10-29T03:11:28;10.20;99.90
52203;DHT22;38173;52.850;6.970;2022-10-29T03:13:54;10.20;99.90
52203;DHT22;38173;52.850;6.970;2022-10-29T03:16:19;10.20;99.90
52203;DHT22;38173;52.850;6.970;2022-10-29T03:18:45;10.20;99.90
52203;DHT22;38173;52.850;6.970;2022-10-29T03:21:11;10.10;99.90
52203;DHT22;38173;52.850;6.970;2022-10-29T03:23:36;10.10;99.90
52203;DHT22;38173;52.850;6.970;2022-10-29T03:26:02;10.10;99.90
52203;DHT22;38173;52.850;6.970;2022-10-29T03:28:28;10.10;99.90
52203;DHT22;38173;52.850;6.970;2022-10-29T03:30:55;10.10;99.90
52203;DHT22;38173;52.850;6.970;2022-10-29T03:33:22;10.20;99.90
52203;DHT22;38173;52.850;6.970;2022-10-29T03:35:47;10.20;99.90
52203;DHT22;38173;52.850;6.970;2022-10-29T03:38:13;10.20;99.90
52203;DHT22;38173;52.850;6.970;2022-10-29T03:40:39;10.20;99.90
52203;DHT22;38173;52.850;6.970;2022-10-29T03:43:04;10.30;99.90
52203;DHT22;38173;52.850;6.970;2022-10-29T03:45:30;10.30;99.90
52203;DHT22;38173;52.850;6.970;2022-10-29T03:47:56;10.30;99.90
52203;DHT22;38173;52.850;6.970;2022-10-29T03:50:21;10.20;99.90
52203;DHT22;38173;52.850;6.970;2022-10-29T03:52:47;10.20;99.90
52203;DHT22;38173;52.850;6.970;2022-10-29T03:55:12;10.20;99.90
52203;DHT22;38173;52.850;6.970;2022-10-29T03:57:38;10.20;99.90
52203;DHT22;38173;52.850;6.970;2022-10-29T04:00:04;10.20;99.90
52203;DHT22;38173;52.850;6.970;2022-10-29T04:02:30;10.20;99.90
52203;DHT22;38173;52.850;6.970;2022-10-29T04:04:55;10.20;99.90
52203;DHT22;38173;52.850;6.970;2022-10-29T04:07:21;10.20;99.90
52203;DHT22;38173;52.850;6.970;2022-10-29T04:09:47;10.20;99.90
52203;DHT22;38173;52.850;6.970;2022-10-29T04:12:12;10.20;99.90
52203;DHT22;38173;52.850;6.970;2022-10-29T04:14:38;10.20;99.90
52203;DHT22;38173;52.850;6.970;2022-10-29T04:17:04;10.20;99.90
52203;DHT22;38173;52.850;6.970;2022-10-29T04:19:29;10.20;99.90
52203;DHT22;38173;52.850;6.970;2022-10-29T04:21:55;10.30;99.90
52203;DHT22;38173;52.850;6.970;2022-10-29T04:24:20;10.30;99.90
52203;DHT22;38173;52.850;6.970;2022-10-29T04:26:46;10.30;99.90
52203;DHT22;38173;52.850;6.970;2022-10-29T04:29:12;10.30;99.90
52203;DHT22;38173;52.850;6.970;2022-10-29T04:31:37;10.40;99.90
52203;DHT22;38173;52.850;6.970;2022-10-29T04:34:03;10.40;99.90
52203;DHT22;38173;52.850;6.970;2022-10-29T04:36:29;10.40;99.90
52203;DHT22;38173;52.850;6.970;2022-10-29T04:38:54;10.50;99.90
52203;DHT22;38173;52.850;6.970;2022-10-29T04:41:20;10.50;99.90
52203;DHT22;38173;52.850;6.970;2022-10-29T04:43:47;10.60;99.90
52203;DHT22;38173;52.850;6.970;2022-10-29T04:46:13;10.60;99.90
52203;DHT22;38173;52.850;6.970;2022-10-29T04:48:39;10.60;99.90
52203;DHT22;38173;52.850;6.970;2022-10-29T04:51:05;10.70;99.90
52203;DHT22;38173;52.850;6.970;2022-10-29T04:53:30;10.60;99.90
52203;DHT22;38173;52.850;6.970;2022-10-29T04:55:59;10.60;99.90
52203;DHT22;38173;52.850;6.970;2022-10-29T04:58:25;10.70;99.90
52203;DHT22;38173;52.850;6.970;2022-10-29T05:00:51;10.70;99.90
52203;DHT22;38173;52.850;6.970;2022-10-29T05:03:17;10.70;99.90
52203;DHT22;38173;52.850;6.970;2022-10-29T05:05:42;10.80;99.90
52203;DHT22;38173;52.850;6.970;2022-10-29T05:08:08;10.80;99.90
52203;DHT22;38173;52.850;6.970;2022-10-29T05:10:36;10.80;99.90
52203;DHT22;38173;52.850;6.970;2022-10-29T05:13:06;10.90;99.90
52203;DHT22;38173;52.850;6.970;2022-10-29T05:15:34;10.90;99.90
52203;DHT22;38173;52.850;6.970;2022-10-29T05:17:59;11.00;99.90
52203;DHT22;38173;52.850;6.970;2022-10-29T05:20:25;11.00;99.90
52203;DHT22;38173;52.850;6.970;2022-10-29T05:23:01;11.00;99.90
52203;DHT22;38173;52.850;6.970;2022-10-29T05:25:28;11.00;99.90
52203;DHT22;38173;52.850;6.970;2022-10-29T05:28:00;11.10;99.90
52203;DHT22;38173;52.850;6.970;2022-10-29T05:30:26;11.10;99.90
52203;DHT22;38173;52.850;6.970;2022-10-29T05:32:51;11.20;99.90
52203;DHT22;38173;52.850;6.970;2022-10-29T05:35:17;11.20;99.90
52203;DHT22;38173;52.850;6.970;2022-10-29T05:37:49;11.20;99.90
52203;DHT22;38173;52.850;6.970;2022-10-29T05:40:14;11.30;99.90
52203;DHT22;38173;52.850;6.970;2022-10-29T05:42:40;11.30;99.90
52203;DHT22;38173;52.850;6.970;2022-10-29T05:45:06;11.40;99.90
52203;DHT22;38173;52.850;6.970;2022-10-29T05:47:31;11.40;99.90
52203;DHT22;38173;52.850;6.970;2022-10-29T05:49:57;11.40;99.90
52203;DHT22;38173;52.850;6.970;2022-10-29T05:52:22;11.40;99.90
52203;DHT22;38173;52.850;6.970;2022-10-29T05:54:48;11.50;99.90
52203;DHT22;38173;52.850;6.970;2022-10-29T05:57:14;11.50;99.90
52203;DHT22;38173;52.850;6.970;2022-10-29T05:59:39;11.50;99.90
52203;DHT22;38173;52.850;6.970;2022-10-29T06:02:05;11.50;99.90
52203;DHT22;38173;52.850;6.970;2022-10-29T06:04:32;11.50;99.90
52203;DHT22;38173;52.850;6.970;2022-10-29T06:06:59;11.40;99.90
52203;DHT22;38173;52.850;6.970;2022-10-29T06:09:24;11.40;99.90
52203;DHT22;38173;52.850;6.970;2022-10-29T06:11:50;11.40;99.90
52203;DHT22;38173;52.850;6.970;2022-10-29T06:14:16;11.40;99.90
52203;DHT22;38173;52.850;6.970;2022-10-29T06:16:41;11.40;99.90
52203;DHT22;38173;52.850;6.970;2022-10-29T06:19:07;11.40;99.90
52203;DHT22;38173;52.850;6.970;2022-10-29T06:21:32;11.40;99.90
52203;DHT22;38173;52.850;6.970;2022-10-29T06:24:00;11.40;99.90
52203;DHT22;38173;52.850;6.970;2022-10-29T06:26:25;11.40;99.90
52203;DHT22;38173;52.850;6.970;2022-10-29T06:28:51;11.40;99.90
52203;DHT22;38173;52.850;6.970;2022-10-29T06:31:16;11.40;99.90
52203;DHT22;38173;52.850;6.970;2022-10-29T06:33:42;11.40;99.90
52203;DHT22;38173;52.850;6.970;2022-10-29T06:36:08;11.40;99.90
52203;DHT22;38173;52.850;6.970;2022-10-29T06:38:33;11.40;99.90
52203;DHT22;38173;52.850;6.970;2022-10-29T06:40:59;11.40;99.90
52203;DHT22;38173;52.850;6.970;2022-10-29T06:43:25;11.30;99.90
52203;DHT22;38173;52.850;6.970;2022-10-29T06:45:50;11.40;99.90
52203;DHT22;38173;52.850;6.970;2022-10-29T06:48:16;11.40;99.90
52203;DHT22;38173;52.850;6.970;2022-10-29T06:50:42;11.40;99.90
52203;DHT22;38173;52.850;6.970;2022-10-29T06:53:08;11.40;99.90
52203;DHT22;38173;52.850;6.970;2022-10-29T06:55:35;11.40;99.90
52203;DHT22;38173;52.850;6.970;2022-10-29T06:58:05;11.40;99.90
52203;DHT22;38173;52.850;6.970;2022-10-29T07:00:31;11.40;99.90
52203;DHT22;38173;52.850;6.970;2022-10-29T07:02:57;11.40;99.90
52203;DHT22;38173;52.850;6.970;2022-10-29T07:05:24;11.50;99.90
52203;DHT22;38173;52.850;6.970;2022-10-29T07:07:57;11.50;99.90
52203;DHT22;38173;52.850;6.970;2022-10-29T07:10:23;11.50;99.90
52203;DHT22;38173;52.850;6.970;2022-10-29T07:12:49;11.60;99.90
52203;DHT22;38173;52.850;6.970;2022-10-29T07:15:15;11.60;99.90
52203;DHT22;38173;52.850;6.970;2022-10-29T07:17:40;11.60;99.90
52203;DHT22;38173;52.850;6.970;2022-10-29T07:20:06;11.60;99.90
52203;DHT22;38173;52.850;6.970;2022-10-29T07:22:33;11.60;99.90
52203;DHT22;38173;52.850;6.970;2022-10-29T07:24:58;11.60;99.90
52203;DHT22;38173;52.850;6.970;2022-10-29T07:27:24;11.70;99.90
52203;DHT22;38173;52.850;6.970;2022-10-29T07:29:50;11.70;99.90
52203;DHT22;38173;52.850;6.970;2022-10-29T07:32:15;11.80;99.90
52203;DHT22;38173;52.850;6.970;2022-10-29T07:34:41;11.80;99.90
52203;DHT22;38173;52.850;6.970;2022-10-29T07:37:06;11.80;99.90
52203;DHT22;38173;52.850;6.970;2022-10-29T07:39:32;11.80;99.90
52203;DHT22;38173;52.850;6.970;2022-10-29T07:41:58;11.90;99.90
52203;DHT22;38173;52.850;6.970;2022-10-29T07:44:23;11.90;99.90
52203;DHT22;38173;52.850;6.970;2022-10-29T07:46:49;11.90;99.90
52203;DHT22;38173;52.850;6.970;2022-10-29T07:49:15;11.90;99.90
52203;DHT22;38173;52.850;6.970;2022-10-29T07:51:41;12.00;99.90
52203;DHT22;38173;52.850;6.970;2022-10-29T07:54:06;12.00;99.90
52203;DHT22;38173;52.850;6.970;2022-10-29T07:56:32;12.00;99.90
52203;DHT22;38173;52.850;6.970;2022-10-29T07:58:58;12.10;99.90
52203;DHT22;38173;52.850;6.970;2022-10-29T08:01:23;12.10;99.90
52203;DHT22;38173;52.850;6.970;2022-10-29T08:03:49;12.10;99.90
52203;DHT22;38173;52.850;6.970;2022-10-29T08:06:15;12.20;99.90
52203;DHT22;38173;52.850;6.970;2022-10-29T08:08:41;12.30;99.90
52203;DHT22;38173;52.850;6.970;2022-10-29T08:11:08;12.40;99.90
52203;DHT22;38173;52.850;6.970;2022-10-29T08:13:34;12.40;99.90
52203;DHT22;38173;52.850;6.970;2022-10-29T08:15:59;12.50;99.90
52203;DHT22;38173;52.850;6.970;2022-10-29T08:18:25;12.60;99.90
52203;DHT22;38173;52.850;6.970;2022-10-29T08:20:51;12.60;99.90
52203;DHT22;38173;52.850;6.970;2022-10-29T08:23:16;12.70;99.90
52203;DHT22;38173;52.850;6.970;2022-10-29T08:25:42;12.80;99.90
52203;DHT22;38173;52.850;6.970;2022-10-29T08:28:09;12.90;99.90
52203;DHT22;38173;52.850;6.970;2022-10-29T08:30:35;12.90;99.90
52203;DHT22;38173;52.850;6.970;2022-10-29T08:33:02;13.00;99.90
52203;DHT22;38173;52.850;6.970;2022-10-29T08:35:27;13.00;99.90
52203;DHT22;38173;52.850;6.970;2022-10-29T08:37:53;13.10;99.90
52203;DHT22;38173;52.850;6.970;2022-10-29T08:43:31;13.20;99.90
52203;DHT22;38173;52.850;6.970;2022-10-29T08:45:46;13.20;99.90
52203;DHT22;38173;52.850;6.970;2022-10-29T08:48:19;13.30;99.90
52203;DHT22;38173;52.850;6.970;2022-10-29T08:50:47;13.40;99.90
52203;DHT22;38173;52.850;6.970;2022-10-29T08:53:18;13.40;99.90
52203;DHT22;38173;52.850;6.970;2022-10-29T08:55:45;13.40;99.90
52203;DHT22;38173;52.850;6.970;2022-10-29T08:58:49;13.60;99.90
52203;DHT22;38173;52.850;6.970;2022-10-29T09:01:06;13.60;99.90
52203;DHT22;38173;52.850;6.970;2022-10-29T09:03:33;13.70;99.90
52203;DHT22;38173;52.850;6.970;2022-10-29T09:11:04;14.10;99.90
52203;DHT22;38173;52.850;6.970;2022-10-29T09:13:41;14.40;99.90
52203;DHT22;38173;52.850;6.970;2022-10-29T09:21:46;14.70;99.90
52203;DHT22;38173;52.850;6.970;2022-10-29T09:27:00;14.90;99.90
52203;DHT22;38173;52.850;6.970;2022-10-29T09:31:54;15.10;99.90
52203;DHT22;38173;52.850;6.970;2022-10-29T09:34:56;15.20;99.90
52203;DHT22;38173;52.850;6.970;2022-10-29T09:37:15;15.30;99.90
52203;DHT22;38173;52.850;6.970;2022-10-29T09:39:41;15.40;99.90
52203;DHT22;38173;52.850;6.970;2022-10-29T09:42:14;15.50;99.90
52203;DHT22;38173;52.850;6.970;2022-10-29T09:44:51;15.60;99.90
52203;DHT22;38173;52.850;6.970;2022-10-29T09:47:31;15.60;99.90
52203;DHT22;38173;52.850;6.970;2022-10-29T09:50:17;15.70;99.90
52203;DHT22;38173;52.850;6.970;2022-10-29T09:52:44;15.80;99.90
52203;DHT22;38173;52.850;6.970;2022-10-29T09:55:28;15.90;99.90
52203;DHT22;38173;52.850;6.970;2022-10-29T09:57:58;16.00;99.90
52203;DHT22;38173;52.850;6.970;2022-10-29T10:00:26;16.10;99.90
52203;DHT22;38173;52.850;6.970;2022-10-29T10:02:53;16.10;99.90
52203;DHT22;38173;52.850;6.970;2022-10-29T10:05:26;16.10;99.90
52203;DHT22;38173;52.850;6.970;2022-10-29T10:08:05;16.10;99.90
52203;DHT22;38173;52.850;6.970;2022-10-29T10:10:31;16.20;99.90
52203;DHT22;38173;52.850;6.970;2022-10-29T10:13:02;16.30;99.90
52203;DHT22;38173;52.850;6.970;2022-10-29T10:15:29;16.40;99.90
52203;DHT22;38173;52.850;6.970;2022-10-29T10:22:55;16.50;99.90
52203;DHT22;38173;52.850;6.970;2022-10-29T10:25:30;16.60;99.90
52203;DHT22;38173;52.850;6.970;2022-10-29T10:27:56;16.60;99.90
52203;DHT22;38173;52.850;6.970;2022-10-29T10:30:21;16.70;99.90
52203;DHT22;38173;52.850;6.970;2022-10-29T10:32:48;16.70;99.90
52203;DHT22;38173;52.850;6.970;2022-10-29T10:35:27;16.80;99.90
52203;DHT22;38173;52.850;6.970;2022-10-29T10:37:54;16.90;99.90
52203;DHT22;38173;52.850;6.970;2022-10-29T10:40:21;17.00;99.90
52203;DHT22;38173;52.850;6.970;2022-10-29T10:42:47;17.10;99.90
52203;DHT22;38173;52.850;6.970;2022-10-29T10:45:16;17.20;99.90
52203;DHT22;38173;52.850;6.970;2022-10-29T10:47:48;17.30;99.90
52203;DHT22;38173;52.850;6.970;2022-10-29T10:50:20;17.40;99.90
52203;DHT22;38173;52.850;6.970;2022-10-29T10:52:47;17.40;99.90
52203;DHT22;38173;52.850;6.970;2022-10-29T11:00:44;17.50;99.90
52203;DHT22;38173;52.850;6.970;2022-10-29T11:06:19;17.50;99.90
52203;DHT22;38173;52.850;6.970;2022-10-29T11:08:54;17.50;99.90
52203;DHT22;38173;52.850;6.970;2022-10-29T11:11:24;17.50;99.90
52203;DHT22;38173;52.850;6.970;2022-10-29T11:13:51;17.60;99.90
52203;DHT22;38173;52.850;6.970;2022-10-29T11:16:36;17.50;99.90
52203;DHT22;38173;52.850;6.970;2022-10-29T11:19:04;17.60;99.90
52203;DHT22;38173;52.850;6.970;2022-10-29T11:21:35;17.50;99.90
52203;DHT22;38173;52.850;6.970;2022-10-29T11:26:30;17.50;99.90
52203;DHT22;38173;52.850;6.970;2022-10-29T11:31:57;17.70;99.90
52203;DHT22;38173;52.850;6.970;2022-10-29T11:37:02;17.80;99.90
52203;DHT22;38173;52.850;6.970;2022-10-29T11:39:30;17.80;99.90
52203;DHT22;38173;52.850;6.970;2022-10-29T11:41:59;17.80;99.90
52203;DHT22;38173;52.850;6.970;2022-10-29T11:44:25;17.90;99.90
52203;DHT22;38173;52.850;6.970;2022-10-29T11:54:47;18.20;99.90
52203;DHT22;38173;52.850;6.970;2022-10-29T12:00:06;18.30;99.90
52203;DHT22;38173;52.850;6.970;2022-10-29T12:10:05;18.60;99.90
52203;DHT22;38173;52.850;6.970;2022-10-29T12:18:04;18.70;99.90
52203;DHT22;38173;52.850;6.970;2022-10-29T12:22:59;18.70;99.90
52203;DHT22;38173;52.850;6.970;2022-10-29T12:30:43;18.90;99.90
52203;DHT22;38173;52.850;6.970;2022-10-29T12:35:49;18.90;99.90
52203;DHT22;38173;52.850;6.970;2022-10-29T12:40:45;18.90;99.90
52203;DHT22;38173;52.850;6.970;2022-10-29T12:43:22;18.90;99.90
52203;DHT22;38173;52.850;6.970;2022-10-29T12:50:50;18.90;99.90
52203;DHT22;38173;52.850;6.970;2022-10-29T12:53:29;18.90;99.90
52203;DHT22;38173;52.850;6.970;2022-10-29T12:55:59;18.80;99.90
52203;DHT22;38173;52.850;6.970;2022-10-29T13:14:16;18.70;99.90
52203;DHT22;38173;52.850;6.970;2022-10-29T13:16:43;18.80;99.90
52203;DHT22;38173;52.850;6.970;2022-10-29T13:19:17;18.80;99.90
52203;DHT22;38173;52.850;6.970;2022-10-29T13:21:53;18.80;99.90
52203;DHT22;38173;52.850;6.970;2022-10-29T13:24:19;18.80;99.90
52203;DHT22;38173;52.850;6.970;2022-10-29T13:26:58;18.80;99.90
52203;DHT22;38173;52.850;6.970;2022-10-29T13:29:44;18.90;99.90
52203;DHT22;38173;52.850;6.970;2022-10-29T13:34:55;18.90;99.90
52203;DHT22;38173;52.850;6.970;2022-10-29T13:45:23;19.10;99.90
52203;DHT22;38173;52.850;6.970;2022-10-29T13:47:48;19.10;99.90
52203;DHT22;38173;52.850;6.970;2022-10-29T13:50:17;19.00;99.90
52203;DHT22;38173;52.850;6.970;2022-10-29T13:52:43;19.00;99.90
52203;DHT22;38173;52.850;6.970;2022-10-29T13:55:11;19.00;99.90
52203;DHT22;38173;52.850;6.970;2022-10-29T13:57:45;18.90;99.90
52203;DHT22;38173;52.850;6.970;2022-10-29T14:00:17;18.90;99.90
52203;DHT22;38173;52.850;6.970;2022-10-29T14:02:53;18.80;99.90
52203;DHT22;38173;52.850;6.970;2022-10-29T14:13:09;18.80;99.90
52203;DHT22;38173;52.850;6.970;2022-10-29T14:15:36;18.80;99.90
52203;DHT22;38173;52.850;6.970;2022-10-29T14:18:17;18.80;99.90
52203;DHT22;38173;52.850;6.970;2022-10-29T14:20:43;18.90;99.90
52203;DHT22;38173;52.850;6.970;2022-10-29T14:23:20;19.20;99.90
52203;DHT22;38173;52.850;6.970;2022-10-29T14:25:50;19.40;99.90
52203;DHT22;38173;52.850;6.970;2022-10-29T14:30:42;19.50;99.90
52203;DHT22;38173;52.850;6.970;2022-10-29T14:33:17;19.50;99.90
52203;DHT22;38173;52.850;6.970;2022-10-29T14:35:43;19.50;99.90
52203;DHT22;38173;52.850;6.970;2022-10-29T14:38:10;19.40;99.90
52203;DHT22;38173;52.850;6.970;2022-10-29T14:40:36;19.30;99.90
52203;DHT22;38173;52.850;6.970;2022-10-29T14:43:01;19.30;99.90
52203;DHT22;38173;52.850;6.970;2022-10-29T14:45:28;19.30;99.90
52203;DHT22;38173;52.850;6.970;2022-10-29T14:47:55;19.20;99.90
52203;DHT22;38173;52.850;6.970;2022-10-29T14:50:22;19.10;99.90
52203;DHT22;38173;52.850;6.970;2022-10-29T14:52:49;19.00;99.90
52203;DHT22;38173;52.850;6.970;2022-10-29T14:55:21;19.00;99.90
52203;DHT22;38173;52.850;6.970;2022-10-29T14:57:48;18.90;99.90
52203;DHT22;38173;52.850;6.970;2022-10-29T15:00:27;18.80;99.90
52203;DHT22;38173;52.850;6.970;2022-10-29T15:02:54;18.80;99.90
52203;DHT22;38173;52.850;6.970;2022-10-29T15:07:48;18.70;99.90
52203;DHT22;38173;52.850;6.970;2022-10-29T15:12:40;18.60;99.90
52203;DHT22;38173;52.850;6.970;2022-10-29T15:15:06;18.50;99.90
52203;DHT22;38173;52.850;6.970;2022-10-29T15:17:32;18.50;99.90
52203;DHT22;38173;52.850;6.970;2022-10-29T15:20:03;18.50;99.90
52203;DHT22;38173;52.850;6.970;2022-10-29T15:22:30;18.40;99.90
52203;DHT22;38173;52.850;6.970;2022-10-29T15:24:57;18.40;99.90
52203;DHT22;38173;52.850;6.970;2022-10-29T15:27:23;18.40;99.90
52203;DHT22;38173;52.850;6.970;2022-10-29T15:29:50;18.30;99.90
52203;DHT22;38173;52.850;6.970;2022-10-29T15:32:17;18.30;99.90
52203;DHT22;38173;52.850;6.970;2022-10-29T15:34:46;18.20;99.90
52203;DHT22;38173;52.850;6.970;2022-10-29T15:37:14;18.10;99.90
52203;DHT22;38173;52.850;6.970;2022-10-29T15:42:27;17.90;99.90
52203;DHT22;38173;52.850;6.970;2022-10-29T15:45:07;17.80;99.90
52203;DHT22;38173;52.850;6.970;2022-10-29T15:47:34;17.70;99.90
52203;DHT22;38173;52.850;6.970;2022-10-29T15:49:59;17.60;99.90
52203;DHT22;38173;52.850;6.970;2022-10-29T15:52:32;17.50;99.90
52203;DHT22;38173;52.850;6.970;2022-10-29T15:55:08;17.40;99.90
52203;DHT22;38173;52.850;6.970;2022-10-29T15:57:35;17.30;99.90
52203;DHT22;38173;52.850;6.970;2022-10-29T16:00:07;17.30;99.90
52203;DHT22;38173;52.850;6.970;2022-10-29T16:02:33;17.20;99.90
52203;DHT22;38173;52.850;6.970;2022-10-29T16:04:58;17.10;99.90
52203;DHT22;38173;52.850;6.970;2022-10-29T16:07:24;17.10;99.90
52203;DHT22;38173;52.850;6.970;2022-10-29T16:09:51;17.00;99.90
52203;DHT22;38173;52.850;6.970;2022-10-29T16:12:17;16.90;99.90
52203;DHT22;38173;52.850;6.970;2022-10-29T16:14:43;16.80;99.90
52203;DHT22;38173;52.850;6.970;2022-10-29T16:17:11;16.80;99.90
52203;DHT22;38173;52.850;6.970;2022-10-29T16:19:37;16.70;99.90
52203;DHT22;38173;52.850;6.970;2022-10-29T16:22:03;16.70;99.90
52203;DHT22;38173;52.850;6.970;2022-10-29T16:24:29;16.70;99.90
52203;DHT22;38173;52.850;6.970;2022-10-29T16:26:54;16.60;99.90
52203;DHT22;38173;52.850;6.970;2022-10-29T16:29:20;16.60;99.90
52203;DHT22;38173;52.850;6.970;2022-10-29T16:31:46;16.50;99.90
52203;DHT22;38173;52.850;6.970;2022-10-29T16:34:12;16.50;99.90
52203;DHT22;38173;52.850;6.970;2022-10-29T16:36:38;16.50;99.90
52203;DHT22;38173;52.850;6.970;2022-10-29T16:39:04;16.50;99.90
52203;DHT22;38173;52.850;6.970;2022-10-29T16:41:29;16.50;99.90
52203;DHT22;38173;52.850;6.970;2022-10-29T16:43:55;16.50;99.90
52203;DHT22;38173;52.850;6.970;2022-10-29T16:46:21;16.50;99.90
52203;DHT22;38173;52.850;6.970;2022-10-29T16:48:47;16.40;99.90
52203;DHT22;38173;52.850;6.970;2022-10-29T16:51:13;16.40;99.90
52203;DHT22;38173;52.850;6.970;2022-10-29T16:53:38;16.40;99.90
52203;DHT22;38173;52.850;6.970;2022-10-29T16:56:04;16.40;99.90
52203;DHT22;38173;52.850;6.970;2022-10-29T16:58:30;16.40;99.90
52203;DHT22;38173;52.850;6.970;2022-10-29T17:01:02;16.30;99.90
52203;DHT22;38173;52.850;6.970;2022-10-29T17:03:28;16.40;99.90
52203;DHT22;38173;52.850;6.970;2022-10-29T17:05:54;16.30;99.90
52203;DHT22;38173;52.850;6.970;2022-10-29T17:08:19;16.30;99.90
52203;DHT22;38173;52.850;6.970;2022-10-29T17:10:45;16.30;99.90
52203;DHT22;38173;52.850;6.970;2022-10-29T17:13:10;16.30;99.90
52203;DHT22;38173;52.850;6.970;2022-10-29T17:15:38;16.20;99.90
52203;DHT22;38173;52.850;6.970;2022-10-29T17:18:04;16.20;99.90
52203;DHT22;38173;52.850;6.970;2022-10-29T17:20:30;16.20;99.90
52203;DHT22;38173;52.850;6.970;2022-10-29T17:22:55;16.20;99.90
52203;DHT22;38173;52.850;6.970;2022-10-29T17:25:21;16.20;99.90
52203;DHT22;38173;52.850;6.970;2022-10-29T17:27:46;16.20;99.90
52203;DHT22;38173;52.850;6.970;2022-10-29T17:30:12;16.20;99.90
52203;DHT22;38173;52.850;6.970;2022-10-29T17:32:38;16.10;99.90
52203;DHT22;38173;52.850;6.970;2022-10-29T17:35:03;16.10;99.90
52203;DHT22;38173;52.850;6.970;2022-10-29T17:37:29;16.00;99.90
52203;DHT22;38173;52.850;6.970;2022-10-29T17:39:55;16.10;99.90
52203;DHT22;38173;52.850;6.970;2022-10-29T17:42:20;16.00;99.90
52203;DHT22;38173;52.850;6.970;2022-10-29T17:44:46;16.00;99.90
52203;DHT22;38173;52.850;6.970;2022-10-29T17:47:12;16.00;99.90
52203;DHT22;38173;52.850;6.970;2022-10-29T17:49:37;15.90;99.90
52203;DHT22;38173;52.850;6.970;2022-10-29T17:52:03;15.90;99.90
52203;DHT22;38173;52.850;6.970;2022-10-29T17:54:29;15.90;99.90
52203;DHT22;38173;52.850;6.970;2022-10-29T17:56:55;15.90;99.90
52203;DHT22;38173;52.850;6.970;2022-10-29T17:59:20;15.80;99.90
52203;DHT22;38173;52.850;6.970;2022-10-29T18:01:46;15.70;99.90
52203;DHT22;38173;52.850;6.970;2022-10-29T18:04:12;15.70;99.90
52203;DHT22;38173;52.850;6.970;2022-10-29T18:06:37;15.70;99.90
52203;DHT22;38173;52.850;6.970;2022-10-29T18:09:03;15.70;99.90